Time;durP1;ratioP1;P1;durP2;ratioP2;P2;SDS_P1;SDS_P2;PMS_P1;PMS_P2;Temp;Humidity;BMP_temperature;BMP_pressure;BME280_temperature;BME280_humidity;BME280_pressure;Samples;Min_cycle;Max_cycle;Signal;HPM_P1;HPM_P2
2022/04/24 00:01:55;;;;;;;9.77;2.67;;;;;;;11.64;60.50;93468.06;5085190;28;20028;-69
2022/04/24 00:04:23;;;;;;;5.90;2.30;;;;;;;11.63;60.50;93471.81;5085189;28;20312;-70
2022/04/24 00:06:48;;;;;;;4.45;1.50;;;;;;;11.57;60.73;93461.69;5085182;28;20024;-69
2022/04/24 00:09:14;;;;;;;10.32;1.63;;;;;;;11.52;60.76;93475.22;5085078;28;20036;-69
2022/04/24 00:11:40;;;;;;;7.80;1.92;;;;;;;11.47;60.86;93467.44;5085039;28;20377;-70
2022/04/24 00:14:09;;;;;;;6.22;1.70;;;;;;;11.43;61.01;93470.72;5085040;28;20315;-69
2022/04/24 00:16:35;;;;;;;11.18;2.15;;;;;;;11.40;61.16;93463.41;5085012;28;20100;-69
2022/04/24 00:19:01;;;;;;;8.68;1.90;;;;;;;11.33;61.54;93473.03;5084257;28;20249;-69
2022/04/24 00:21:26;;;;;;;5.10;1.80;;;;;;;11.26;61.85;93468.22;5084757;28;20116;-69
2022/04/24 00:23:52;;;;;;;3.47;1.40;;;;;;;11.26;61.84;93473.56;5084871;28;20037;-69
2022/04/24 00:26:17;;;;;;;4.53;1.55;;;;;;;11.24;62.00;93486.44;5084854;28;20052;-70
2022/04/24 00:28:43;;;;;;;7.72;1.90;;;;;;;11.15;62.25;93477.72;5084806;28;20044;-70
2022/04/24 00:31:08;;;;;;;16.80;2.92;;;;;;;11.13;62.56;93478.03;5084738;28;20311;-71
2022/04/24 00:33:34;;;;;;;10.95;3.50;;;;;;;11.15;62.72;93480.38;5084456;28;20024;-68
2022/04/24 00:35:59;;;;;;;7.78;2.75;;;;;;;11.16;62.61;93472.06;5084910;28;20379;-69
2022/04/24 00:38:25;;;;;;;6.95;2.40;;;;;;;11.13;62.42;93482.59;5084621;28;20219;-68
2022/04/24 00:40:52;;;;;;;11.85;3.50;;;;;;;11.07;62.73;93481.22;5084317;28;20421;-69
2022/04/24 00:43:18;;;;;;;10.55;2.95;;;;;;;10.98;63.03;93474.06;5084339;28;20070;-68
2022/04/24 00:45:44;;;;;;;10.63;2.83;;;;;;;10.98;63.06;93475.97;5084194;28;20017;-69
2022/04/24 00:48:09;;;;;;;8.55;2.30;;;;;;;10.91;63.07;93471.16;5084525;28;20017;-68
2022/04/24 00:50:39;;;;;;;9.10;2.88;;;;;;;10.88;63.40;93474.44;5084233;28;20028;-69
2022/04/24 00:53:06;;;;;;;9.75;2.65;;;;;;;10.87;63.26;93464.09;5084289;28;20012;-68
2022/04/24 00:55:31;;;;;;;9.27;2.35;;;;;;;10.89;63.45;93472.56;5084112;28;20035;-69
2022/04/24 00:57:57;;;;;;;6.25;1.83;;;;;;;10.82;63.32;93483.75;5084250;28;20021;-69
2022/04/24 01:00:23;;;;;;;4.40;1.70;;;;;;;10.62;63.78;93477.25;5084122;28;20125;-69
2022/04/24 01:02:48;;;;;;;6.43;2.13;;;;;;;10.61;64.12;93481.81;5083994;28;20223;-70
2022/04/24 01:05:17;;;;;;;3.35;1.55;;;;;;;10.61;64.18;93481.81;5084100;28;20026;-69
2022/04/24 01:07:43;;;;;;;6.55;2.15;;;;;;;10.60;64.09;93482.94;5083845;28;20058;-69
2022/04/24 01:10:09;;;;;;;4.97;1.73;;;;;;;10.47;64.39;93486.59;5084005;28;20028;-68
2022/04/24 01:12:34;;;;;;;10.95;2.15;;;;;;;10.45;64.21;93483.47;5083756;28;20021;-68
2022/04/24 01:14:59;;;;;;;10.10;2.30;;;;;;;10.46;64.52;93495.69;5084034;28;20021;-68
2022/04/24 01:17:26;;;;;;;6.60;1.85;;;;;;;10.46;64.45;93490.34;5083868;28;20020;-69
2022/04/24 01:19:53;;;;;;;10.30;2.20;;;;;;;10.42;64.75;93494.75;5083654;28;20021;-69
2022/04/24 01:22:18;;;;;;;5.88;2.05;;;;;;;10.33;64.97;93492.13;5083701;28;20021;-69
2022/04/24 01:24:44;;;;;;;9.35;3.50;;;;;;;10.35;65.12;93494.50;5083709;28;20218;-69
2022/04/24 01:27:09;;;;;;;9.45;3.40;;;;;;;10.35;65.22;93500.59;5083721;28;20031;-69
2022/04/24 01:29:35;;;;;;;7.60;3.13;;;;;;;10.35;65.05;93499.81;5083402;28;20293;-69
2022/04/24 01:32:00;;;;;;;9.52;2.13;;;;;;;10.32;64.71;93492.44;5083688;28;20024;-69
2022/04/24 01:34:26;;;;;;;7.93;2.42;;;;;;;10.27;64.33;93503.25;5083611;28;20043;-70
2022/04/24 01:36:51;;;;;;;8.43;2.80;;;;;;;10.22;64.47;93502.34;5083267;28;20054;-70
2022/04/24 01:39:17;;;;;;;8.52;2.00;;;;;;;10.24;64.71;93496.69;5083358;28;20028;-70
2022/04/24 01:41:43;;;;;;;7.28;2.67;;;;;;;10.22;64.87;93499.69;5083205;28;20059;-67
2022/04/24 01:44:08;;;;;;;8.95;2.30;;;;;;;10.17;65.02;93505.16;5083416;28;20044;-69
2022/04/24 01:46:34;;;;;;;13.93;2.50;;;;;;;10.13;65.11;93504.25;5083383;28;20322;-69
2022/04/24 01:48:59;;;;;;;8.85;2.78;;;;;;;10.19;65.12;93507.50;5083461;28;20023;-70
2022/04/24 01:51:25;;;;;;;9.65;2.40;;;;;;;10.23;65.06;93514.53;5083103;28;20079;-69
2022/04/24 01:53:50;;;;;;;12.00;3.58;;;;;;;10.17;64.87;93515.03;5082969;28;20027;-69
2022/04/24 01:56:16;;;;;;;4.63;2.08;;;;;;;10.10;65.13;93512.88;5082936;28;20031;-69
2022/04/24 01:58:41;;;;;;;8.35;2.63;;;;;;;10.05;65.23;93510.38;5083067;28;20016;-69
2022/04/24 02:01:07;;;;;;;12.18;2.30;;;;;;;10.07;64.95;93510.06;5083022;28;20196;-69
2022/04/24 02:03:34;;;;;;;11.77;2.35;;;;;;;10.06;65.19;93513.84;5083087;28;20370;-69
2022/04/24 02:06:01;;;;;;;7.35;2.00;;;;;;;9.96;65.38;93520.28;5065080;28;20024;-67
2022/04/24 02:08:27;;;;;;;13.02;2.35;;;;;;;9.83;65.72;93512.16;5082715;28;20031;-68
2022/04/24 02:10:52;;;;;;;6.95;2.20;;;;;;;9.82;65.78;93515.91;5082788;28;20024;-67
2022/04/24 02:13:18;;;;;;;6.68;2.30;;;;;;;9.83;65.93;93522.81;5082743;28;20013;-67
2022/04/24 02:15:45;;;;;;;7.32;2.30;;;;;;;9.82;65.86;93518.56;5082679;28;20058;-67
2022/04/24 02:18:11;;;;;;;6.15;2.15;;;;;;;9.77;65.93;93526.72;5082389;28;20093;-69
2022/04/24 02:20:36;;;;;;;10.60;2.65;;;;;;;9.78;65.89;93514.19;5082723;28;20059;-68
2022/04/24 02:23:02;;;;;;;8.38;2.83;;;;;;;9.71;66.13;93520.00;5082701;28;20028;-69
2022/04/24 02:25:29;;;;;;;11.35;3.35;;;;;;;9.68;66.10;93520.63;5082645;28;20375;-69
2022/04/24 02:27:55;;;;;;;16.63;5.25;;;;;;;9.55;66.59;93522.38;5082335;28;20256;-70
2022/04/24 02:30:27;;;;;;;15.77;5.00;;;;;;;9.55;66.65;93532.22;5082771;28;20257;-69
2022/04/24 02:32:54;;;;;;;14.07;5.78;;;;;;;9.50;66.82;93524.41;5082594;28;20278;-69
2022/04/24 02:35:20;;;;;;;13.98;5.38;;;;;;;9.42;66.81;93528.63;5082499;28;20020;-70
2022/04/24 02:37:45;;;;;;;14.65;5.30;;;;;;;9.40;66.66;93515.66;5082334;28;20081;-69
2022/04/24 02:40:11;;;;;;;18.23;5.53;;;;;;;9.36;66.69;93522.69;5082399;28;20020;-69
2022/04/24 02:42:37;;;;;;;15.73;5.38;;;;;;;9.38;66.90;93517.84;5082117;28;20020;-69
2022/04/24 02:45:05;;;;;;;13.05;4.43;;;;;;;9.40;66.35;93515.66;5082544;28;20271;-69
2022/04/24 02:47:30;;;;;;;11.43;4.03;;;;;;;9.38;67.23;93519.69;5082411;28;20314;-69
2022/04/24 02:49:55;;;;;;;9.98;4.15;;;;;;;9.39;67.23;93514.06;5082226;28;20100;-69
2022/04/24 02:52:21;;;;;;;14.75;6.45;;;;;;;9.38;67.58;93511.72;5082358;28;20025;-69
2022/04/24 02:54:46;;;;;;;12.90;4.95;;;;;;;9.34;67.63;93524.88;5082521;28;20020;-69
2022/04/24 02:57:12;;;;;;;11.75;4.40;;;;;;;9.37;67.24;93523.47;5082363;28;20031;-69
2022/04/24 02:59:42;;;;;;;11.13;4.10;;;;;;;9.35;67.14;93523.78;5082224;28;20027;-70
2022/04/24 03:02:08;;;;;;;14.13;3.70;;;;;;;9.34;66.82;93524.09;5081988;28;20028;-69
2022/04/24 03:04:33;;;;;;;9.32;2.63;;;;;;;9.31;67.01;93522.06;5082292;28;20020;-69
2022/04/24 03:06:59;;;;;;;7.95;2.90;;;;;;;9.33;66.74;93531.28;5082147;28;20373;-69
2022/04/24 03:09:24;;;;;;;8.50;3.00;;;;;;;9.34;67.34;93526.75;5082163;28;20025;-70
2022/04/24 03:11:50;;;;;;;9.07;3.17;;;;;;;9.38;67.30;93538.31;5082168;28;20083;-69
2022/04/24 03:14:15;;;;;;;10.30;3.25;;;;;;;9.37;67.48;93542.09;5081950;28;20221;-69
2022/04/24 03:16:41;;;;;;;8.43;2.92;;;;;;;9.32;67.48;93540.38;5082001;28;20067;-69
2022/04/24 03:19:06;;;;;;;10.48;3.40;;;;;;;9.29;67.14;93540.97;5082303;28;20024;-69
2022/04/24 03:21:32;;;;;;;3.83;2.40;;;;;;;9.28;67.18;93543.94;5064242;28;20037;-69
2022/04/24 03:23:57;;;;;;;7.32;2.85;;;;;;;9.34;66.85;93550.69;5082013;28;20056;-69
2022/04/24 03:26:23;;;;;;;11.63;2.70;;;;;;;9.28;66.90;93547.41;5081953;28;20029;-69
2022/04/24 03:28:48;;;;;;;6.13;2.35;;;;;;;9.28;66.67;93554.59;5081891;28;20355;-69
2022/04/24 03:31:13;;;;;;;8.50;2.95;;;;;;;9.24;66.60;93549.13;5081858;28;20044;-69
2022/04/24 03:33:39;;;;;;;7.82;3.15;;;;;;;9.22;66.70;93552.09;5082057;28;20035;-69
2022/04/24 03:36:04;;;;;;;6.43;2.58;;;;;;;9.27;67.04;93559.13;5081954;28;20070;-69
2022/04/24 03:38:30;;;;;;;7.05;2.30;;;;;;;9.21;67.07;93565.69;5081733;28;20048;-69
2022/04/24 03:40:56;;;;;;;5.00;1.83;;;;;;;9.21;67.21;93563.03;5081824;28;20034;-69
2022/04/24 03:43:21;;;;;;;11.80;2.80;;;;;;;9.20;67.98;93564.16;5081773;28;20119;-69
2022/04/24 03:45:46;;;;;;;12.02;2.67;;;;;;;9.14;68.06;93565.34;5081757;28;20032;-69
2022/04/24 03:48:12;;;;;;;7.20;3.03;;;;;;;9.14;67.92;93560.03;5081846;28;20020;-69
2022/04/24 03:50:38;;;;;;;8.73;3.28;;;;;;;9.15;67.72;93561.63;5081571;28;20210;-69
2022/04/24 03:53:03;;;;;;;9.70;3.38;;;;;;;9.14;67.78;93560.84;5082110;28;20215;-69
2022/04/24 03:55:29;;;;;;;14.27;5.32;;;;;;;9.15;67.53;93566.94;5085481;28;20095;-69
2022/04/24 03:57:55;;;;;;;14.48;5.35;;;;;;;9.12;67.97;93562.22;5085421;28;20080;-69
2022/04/24 04:00:20;;;;;;;15.55;5.43;;;;;;;9.24;67.43;93560.53;5085448;28;20030;-69
2022/04/24 04:02:47;;;;;;;19.77;5.85;;;;;;;9.23;67.54;93552.88;5085172;28;20377;-69
2022/04/24 04:05:13;;;;;;;15.02;5.60;;;;;;;9.19;67.69;93555.34;5085186;28;20134;-69
2022/04/24 04:07:39;;;;;;;18.02;6.15;;;;;;;9.15;68.10;93566.94;5085041;28;20032;-69
2022/04/24 04:10:06;;;;;;;13.55;5.55;;;;;;;9.24;67.91;93559.78;5085378;28;20086;-69
2022/04/24 04:12:32;;;;;;;9.15;4.65;;;;;;;9.30;67.78;93561.19;5084993;28;20027;-69
2022/04/24 04:15:00;;;;;;;11.95;4.53;;;;;;;9.42;67.68;93556.03;5085288;28;20877;-69
2022/04/24 04:17:26;;;;;;;15.50;5.35;;;;;;;9.51;67.46;93563.22;5085071;28;20016;-69
2022/04/24 04:19:51;;;;;;;13.35;4.47;;;;;;;9.66;66.88;93556.63;5084987;28;20058;-70
2022/04/24 04:22:17;;;;;;;18.25;5.03;;;;;;;9.79;66.29;93566.31;5084984;28;20021;-69
2022/04/24 04:24:44;;;;;;;17.15;5.15;;;;;;;9.84;66.32;93558.97;5084814;28;20333;-69
2022/04/24 04:27:10;;;;;;;15.38;4.90;;;;;;;9.96;66.11;93552.22;5085059;28;20047;-69
2022/04/24 04:29:35;;;;;;;10.20;4.95;;;;;;;10.07;66.07;93556.09;5084836;28;20048;-69
2022/04/24 04:32:02;;;;;;;8.88;3.88;;;;;;;10.17;66.01;93558.44;5084676;28;20028;-69
2022/04/24 04:34:28;;;;;;;12.27;4.18;;;;;;;10.28;65.66;93563.41;5084645;28;20055;-69
2022/04/24 04:36:53;;;;;;;9.63;4.32;;;;;;;10.33;66.20;93568.63;5084638;28;20024;-69
2022/04/24 04:39:20;;;;;;;11.68;4.75;;;;;;;10.43;66.19;93570.94;5084768;28;20031;-69
2022/04/24 04:41:45;;;;;;;16.33;5.82;;;;;;;10.50;66.04;93570.44;5084584;28;20024;-69
2022/04/24 04:44:11;;;;;;;22.27;6.68;;;;;;;10.59;65.33;93577.31;5084597;28;20056;-69
2022/04/24 04:46:36;;;;;;;18.33;7.22;;;;;;;10.59;65.51;93585.28;5084670;28;20338;-69
2022/04/24 04:49:02;;;;;;;18.95;5.28;;;;;;;10.58;65.99;93582.94;5084308;28;20333;-69
2022/04/24 04:51:27;;;;;;;16.35;6.18;;;;;;;10.53;65.37;93581.25;5084434;28;20326;-69
2022/04/24 04:53:55;;;;;;;15.60;6.57;;;;;;;10.40;65.63;93590.22;5084502;28;20084;-69
2022/04/24 04:56:21;;;;;;;14.15;6.13;;;;;;;10.38;66.17;93592.41;5084373;28;20024;-69
2022/04/24 04:58:47;;;;;;;15.98;5.95;;;;;;;10.28;66.31;93598.03;5084102;28;20249;-69
2022/04/24 05:01:12;;;;;;;14.13;5.43;;;;;;;10.32;66.25;93591.00;5084163;28;20024;-70
2022/04/24 05:03:38;;;;;;;14.88;6.22;;;;;;;10.32;66.35;93596.34;5084357;28;20024;-70
2022/04/24 05:06:03;;;;;;;11.85;5.55;;;;;;;10.23;66.93;93599.78;5083828;28;20031;-70
2022/04/24 05:08:29;;;;;;;18.00;5.93;;;;;;;10.17;67.64;93606.38;5084109;28;20066;-70
2022/04/24 05:10:54;;;;;;;16.45;5.70;;;;;;;10.24;67.53;93600.59;5083710;28;20036;-67
2022/04/24 05:13:20;;;;;;;22.25;7.47;;;;;;;10.30;67.81;93602.00;5083927;28;20084;-68
2022/04/24 05:15:46;;;;;;;22.05;6.80;;;;;;;10.42;67.22;93601.31;5083704;28;20024;-68
2022/04/24 05:18:12;;;;;;;13.13;6.15;;;;;;;10.49;66.55;93601.63;5083660;28;20020;-68
2022/04/24 05:20:37;;;;;;;13.10;6.43;;;;;;;10.54;66.57;93612.13;5083800;28;20196;-68
2022/04/24 05:23:07;;;;;;;13.40;6.25;;;;;;;10.50;66.94;93602.41;5083327;28;20024;-68
2022/04/24 05:25:34;;;;;;;15.18;6.82;;;;;;;10.62;66.50;93608.66;5083634;28;20016;-68
2022/04/24 05:28:00;;;;;;;11.85;6.40;;;;;;;10.72;66.49;93602.19;5083572;28;20478;-70
2022/04/24 05:30:28;;;;;;;16.20;6.28;;;;;;;10.81;66.93;93602.16;5083552;28;20020;-68
2022/04/24 05:32:54;;;;;;;9.88;6.55;;;;;;;10.95;66.91;93601.91;5083375;28;20043;-68
2022/04/24 05:35:20;;;;;;;14.15;5.57;;;;;;;11.10;66.38;93598.72;5083290;28;20044;-68
2022/04/24 05:37:47;;;;;;;14.63;5.90;;;;;;;11.24;65.82;93598.50;5083486;28;20096;-68
2022/04/24 05:40:14;;;;;;;14.77;6.82;;;;;;;11.36;65.54;93587.91;5083392;28;20047;-70
2022/04/24 05:42:53;;;;;;;19.33;6.50;;;;;;;11.44;64.84;93594.28;5083250;28;20226;-68
2022/04/24 05:45:22;;;;;;;15.07;6.15;;;;;;;11.56;64.59;93588.22;5083227;28;20024;-67
2022/04/24 05:47:49;;;;;;;11.18;5.90;;;;;;;11.72;63.53;93591.09;5083195;28;20028;-68
2022/04/24 05:50:14;;;;;;;18.38;6.70;;;;;;;11.84;63.31;93596.50;5083045;28;20249;-68
2022/04/24 05:52:40;;;;;;;22.02;6.05;;;;;;;11.97;62.85;93595.47;5083271;28;20043;-68
2022/04/24 05:55:06;;;;;;;11.98;5.65;;;;;;;12.09;62.60;93592.06;5082954;28;20044;-68
2022/04/24 05:57:32;;;;;;;20.63;5.82;;;;;;;12.24;62.68;93593.34;5082994;28;20016;-68
2022/04/24 05:59:58;;;;;;;21.17;7.50;;;;;;;12.38;62.37;93596.50;5082910;28;20310;-68
2022/04/24 06:02:24;;;;;;;16.25;7.15;;;;;;;12.51;62.08;93594.63;5082885;28;20032;-68
2022/04/24 06:04:49;;;;;;;22.13;6.18;;;;;;;12.62;61.51;93590.44;5082790;28;20083;-68
2022/04/24 06:07:15;;;;;;;12.07;5.38;;;;;;;12.75;61.05;93595.78;5082949;28;20371;-68
2022/04/24 06:09:41;;;;;;;13.23;5.00;;;;;;;12.87;60.79;93589.69;5082918;28;20318;-68
2022/04/24 06:12:07;;;;;;;17.35;6.10;;;;;;;12.97;60.89;93590.00;5082878;28;20061;-68
2022/04/24 06:14:33;;;;;;;10.35;4.95;;;;;;;13.09;59.48;93591.91;5082730;28;20307;-68
2022/04/24 06:17:00;;;;;;;15.50;5.38;;;;;;;13.16;59.05;93591.34;5081898;28;20051;-68
2022/04/24 06:19:26;;;;;;;14.98;4.57;;;;;;;13.21;58.74;93583.09;5082481;28;20017;-68
2022/04/24 06:21:52;;;;;;;17.33;4.20;;;;;;;13.26;58.36;93590.91;5082535;28;20134;-68
2022/04/24 06:24:17;;;;;;;9.25;3.33;;;;;;;13.27;57.46;93581.75;5082473;28;20028;-68
2022/04/24 06:26:44;;;;;;;11.02;3.88;;;;;;;13.35;57.49;93590.78;5082535;28;20024;-68
2022/04/24 06:29:10;;;;;;;11.85;2.97;;;;;;;13.41;57.63;93587.56;5082494;28;20071;-68
2022/04/24 06:31:36;;;;;;;11.90;2.92;;;;;;;13.46;56.65;93585.78;5082438;28;20024;-68
2022/04/24 06:34:01;;;;;;;7.30;2.83;;;;;;;13.58;56.69;93588.44;5082279;28;20077;-68
2022/04/24 06:36:27;;;;;;;7.43;3.33;;;;;;;13.64;56.64;93584.41;5082503;28;20118;-68
2022/04/24 06:38:52;;;;;;;7.05;2.80;;;;;;;13.75;56.39;93587.38;5082317;28;20020;-68
2022/04/24 06:41:17;;;;;;;6.93;2.55;;;;;;;13.85;56.28;93578.88;5082228;28;20084;-68
2022/04/24 06:43:43;;;;;;;4.88;2.42;;;;;;;13.94;55.90;93586.75;5082384;28;20025;-68
2022/04/24 06:46:08;;;;;;;11.25;2.70;;;;;;;14.04;56.00;93578.25;5082409;28;20036;-68
2022/04/24 06:48:34;;;;;;;4.93;2.63;;;;;;;14.12;55.52;93582.66;5082183;28;20105;-68
2022/04/24 06:50:59;;;;;;;7.88;2.55;;;;;;;14.15;55.45;93587.34;5082154;28;20087;-68
2022/04/24 06:53:27;;;;;;;11.18;2.67;;;;;;;14.27;54.93;93580.38;5082206;28;20024;-68
2022/04/24 06:55:53;;;;;;;7.90;2.90;;;;;;;14.37;54.30;93577.19;5081897;28;20318;-68
2022/04/24 06:58:19;;;;;;;8.50;2.40;;;;;;;14.44;54.02;93572.78;5082116;28;20035;-69
2022/04/24 07:00:46;;;;;;;8.20;2.25;;;;;;;14.47;53.91;93582.06;5082004;28;20025;-68
2022/04/24 07:03:18;;;;;;;9.45;2.45;;;;;;;14.51;53.87;93580.25;5081836;28;20031;-68
2022/04/24 07:05:44;;;;;;;10.00;2.40;;;;;;;14.63;53.51;93574.06;5082198;28;20222;-68
2022/04/24 07:08:10;;;;;;;10.57;2.33;;;;;;;14.74;53.42;93566.28;5082185;28;20222;-68
2022/04/24 07:10:36;;;;;;;3.88;1.80;;;;;;;14.57;53.19;93552.09;5064037;28;20040;-68
2022/04/24 07:13:01;;;;;;;9.73;2.72;;;;;;;14.57;53.16;93570.06;5081915;28;20040;-68
2022/04/24 07:15:30;;;;;;;10.85;2.50;;;;;;;14.70;52.51;93566.19;5081882;28;20214;-68
2022/04/24 07:17:56;;;;;;;12.77;2.42;;;;;;;14.75;51.58;93565.94;5081949;28;20040;-69
2022/04/24 07:20:22;;;;;;;9.88;2.47;;;;;;;14.83;51.74;93564.97;5081854;28;20040;-69
2022/04/24 07:22:51;;;;;;;9.43;2.15;;;;;;;14.92;51.22;93556.78;5082011;28;20055;-69
2022/04/24 07:25:21;;;;;;;10.13;2.50;;;;;;;15.01;51.18;93554.66;5081787;28;20093;-69
2022/04/24 07:27:47;;;;;;;7.07;2.22;;;;;;;15.13;51.15;93555.72;5082923;28;20111;-69
2022/04/24 07:30:14;;;;;;;8.10;2.15;;;;;;;15.21;51.20;93560.88;5086057;28;20024;-69
2022/04/24 07:32:47;;;;;;;9.07;2.50;;;;;;;15.37;50.04;93549.34;5085892;28;20200;-69
2022/04/24 07:35:24;;;;;;;12.13;2.40;;;;;;;15.40;50.33;93546.72;5085755;28;20028;-70
2022/04/24 07:37:50;;;;;;;4.95;2.08;;;;;;;15.51;50.69;93540.78;5085576;28;20055;-69
2022/04/24 07:40:17;;;;;;;9.77;2.40;;;;;;;15.64;50.54;93550.28;5085839;28;20032;-69
2022/04/24 07:43:03;;;;;;;9.55;2.63;;;;;;;15.56;50.31;93544.00;5085697;28;20024;-70
2022/04/24 07:45:34;;;;;;;6.47;2.00;;;;;;;15.48;50.20;93557.63;5085586;28;20044;-70
2022/04/24 07:48:01;;;;;;;10.18;2.47;;;;;;;15.56;50.04;93549.38;5085663;28;20222;-70
2022/04/24 07:50:34;;;;;;;5.40;1.70;;;;;;;15.73;49.62;93544.75;5085400;28;20063;-70
2022/04/24 07:53:00;;;;;;;8.10;2.13;;;;;;;15.76;50.37;93547.50;5085633;28;20091;-69
2022/04/24 07:55:25;;;;;;;8.50;1.98;;;;;;;15.88;50.03;93541.22;5085458;28;20024;-69
2022/04/24 07:57:53;;;;;;;6.75;2.08;;;;;;;16.02;50.05;93538.03;5085528;28;20074;-69
2022/04/24 08:00:21;;;;;;;9.98;2.10;;;;;;;16.09;48.47;93538.16;5085295;28;20032;-69
2022/04/24 08:03:00;;;;;;;9.18;2.75;;;;;;;16.09;47.95;93537.38;5085064;28;20050;-69
2022/04/24 08:05:36;;;;;;;4.47;1.67;;;;;;;16.20;47.11;93539.16;5085157;28;20024;-69
2022/04/24 08:08:04;;;;;;;5.53;2.13;;;;;;;16.30;47.70;93531.63;5085158;28;20021;-69
2022/04/24 08:10:32;;;;;;;9.02;2.17;;;;;;;16.37;47.11;93526.38;5085119;28;20051;-69
2022/04/24 08:12:58;;;;;;;12.02;2.80;;;;;;;16.46;47.00;93524.22;5085011;28;20028;-69
2022/04/24 08:15:23;;;;;;;7.32;2.38;;;;;;;16.51;47.05;93515.88;5084960;28;20246;-69
2022/04/24 08:17:49;;;;;;;6.82;2.42;;;;;;;16.68;46.75;93511.91;5085084;28;20056;-70
2022/04/24 08:20:16;;;;;;;13.50;2.38;;;;;;;16.76;46.66;93510.13;5084877;28;20039;-69
2022/04/24 08:22:44;;;;;;;8.10;3.05;;;;;;;16.93;46.14;93511.56;5084958;28;20039;-69
2022/04/24 08:25:12;;;;;;;12.73;2.28;;;;;;;17.06;45.62;93512.94;5084948;28;20330;-69
2022/04/24 08:27:38;;;;;;;9.00;1.95;;;;;;;17.19;45.50;93500.03;5084529;28;20315;-69
2022/04/24 08:30:05;;;;;;;8.02;2.53;;;;;;;17.34;44.24;93512.56;5084747;28;20021;-70
2022/04/24 08:32:32;;;;;;;9.30;2.03;;;;;;;17.49;44.28;93508.13;5084825;28;20016;-70
2022/04/24 08:34:57;;;;;;;5.32;1.60;;;;;;;17.61;43.63;93501.75;5084611;28;20028;-70
2022/04/24 08:37:24;;;;;;;7.80;1.58;;;;;;;17.74;42.14;93494.19;5084607;28;20200;-69
2022/04/24 08:39:50;;;;;;;4.45;1.33;;;;;;;17.84;41.81;93502.44;5083929;28;20203;-69
2022/04/24 08:42:18;;;;;;;5.85;1.40;;;;;;;17.99;41.37;93497.19;5084470;28;20066;-70
2022/04/24 08:44:46;;;;;;;7.25;1.50;;;;;;;18.11;41.41;93494.25;5084747;28;20052;-69
2022/04/24 08:47:13;;;;;;;6.90;1.50;;;;;;;18.24;41.36;93495.56;5084606;28;20413;-69
2022/04/24 08:49:40;;;;;;;9.10;1.60;;;;;;;18.35;40.82;93497.59;5084415;28;20027;-69
2022/04/24 08:52:07;;;;;;;4.88;1.25;;;;;;;18.39;38.84;93495.69;5084115;28;20277;-69
2022/04/24 08:54:33;;;;;;;4.00;1.15;;;;;;;18.42;38.96;93476.09;5084263;28;20062;-69
2022/04/24 08:56:58;;;;;;;8.57;1.45;;;;;;;18.51;39.42;93478.47;5084171;28;20028;-69
2022/04/24 08:59:24;;;;;;;8.82;2.05;;;;;;;18.56;40.35;93487.00;5084244;28;20242;-69
2022/04/24 09:01:51;;;;;;;6.13;1.40;;;;;;;18.68;39.33;93471.66;5083988;28;20024;-69
2022/04/24 09:04:18;;;;;;;9.18;2.10;;;;;;;18.71;39.33;93485.19;5084131;28;20047;-69
2022/04/24 09:06:55;;;;;;;5.22;1.58;;;;;;;18.77;39.54;93480.22;5084099;28;20294;-70
2022/04/24 09:09:20;;;;;;;6.25;1.70;;;;;;;18.65;39.89;93481.28;5084045;28;20119;-69
2022/04/24 09:11:46;;;;;;;9.00;1.85;;;;;;;18.70;39.84;93469.34;5083981;28;20020;-69
2022/04/24 09:14:24;;;;;;;8.63;2.20;;;;;;;18.68;40.19;93480.53;5066214;28;20021;-70
2022/04/24 09:16:49;;;;;;;6.00;1.73;;;;;;;18.80;40.01;93463.28;5083924;28;20095;-70
2022/04/24 09:19:25;;;;;;;5.22;2.10;;;;;;;18.80;39.66;93463.28;5084113;28;20207;-70
2022/04/24 09:21:53;;;;;;;7.68;1.92;;;;;;;18.92;39.11;93463.00;5083714;28;20032;-70
2022/04/24 09:24:19;;;;;;;7.78;1.55;;;;;;;18.98;38.94;93460.72;5083952;28;20091;-70
2022/04/24 09:26:56;;;;;;;8.43;2.00;;;;;;;19.13;39.34;93458.88;5083645;28;20039;-69
2022/04/24 09:29:22;;;;;;;4.78;1.17;;;;;;;19.29;40.08;93453.97;5083221;28;20051;-69
2022/04/24 09:31:49;;;;;;;8.80;1.95;;;;;;;19.44;39.74;93438.63;5083522;28;20013;-70
2022/04/24 09:34:17;;;;;;;9.85;1.65;;;;;;;19.61;39.95;93445.25;5083642;28;20241;-70
2022/04/24 09:36:46;;;;;;;7.25;1.73;;;;;;;19.77;38.79;93443.00;5083623;28;20036;-70
2022/04/24 09:39:11;;;;;;;5.03;1.67;;;;;;;19.87;38.02;93441.50;5083382;28;20024;-69
2022/04/24 09:41:37;;;;;;;5.10;1.80;;;;;;;19.98;37.74;93441.53;5083168;28;20269;-69
2022/04/24 09:44:15;;;;;;;6.65;1.77;;;;;;;20.05;36.91;93446.97;5083498;28;20324;-70
2022/04/24 09:46:41;;;;;;;9.43;1.67;;;;;;;20.10;36.67;93437.69;5083210;28;20032;-69
2022/04/24 09:49:10;;;;;;;4.72;1.65;;;;;;;19.99;36.56;93435.75;5083088;28;20095;-69
2022/04/24 09:51:42;;;;;;;7.97;1.58;;;;;;;20.13;38.10;93426.09;5082267;28;20047;-69
2022/04/24 09:54:09;;;;;;;12.25;2.00;;;;;;;20.33;37.75;93429.22;5083173;28;20055;-69
2022/04/24 09:56:35;;;;;;;19.23;4.50;;;;;;;20.47;37.33;93418.41;5083018;28;20073;-69
2022/04/24 09:59:01;;;;;;;5.18;1.70;;;;;;;20.61;36.88;93413.00;5083042;28;20037;-69
2022/04/24 10:01:27;;;;;;;4.18;1.58;;;;;;;20.62;36.57;93409.16;5064984;28;20047;-69
2022/04/24 10:03:53;;;;;;;6.13;1.55;;;;;;;20.49;37.00;93404.50;5083026;28;20024;-69
2022/04/24 10:06:23;;;;;;;10.05;1.90;;;;;;;20.39;36.62;93406.03;5082850;28;20074;-70
2022/04/24 10:08:52;;;;;;;6.20;1.65;;;;;;;20.63;37.19;93409.94;5082965;28;20070;-69
2022/04/24 10:11:19;;;;;;;12.48;1.92;;;;;;;20.82;36.62;93395.19;5082821;28;20286;-69
2022/04/24 10:13:46;;;;;;;7.82;1.70;;;;;;;20.91;35.95;93400.25;5082875;28;20029;-70
2022/04/24 10:16:33;;;;;;;6.13;1.60;;;;;;;20.94;36.87;93394.78;5082666;28;20310;-70
2022/04/24 10:19:11;;;;;;;4.43;1.58;;;;;;;21.22;36.66;93393.19;5082475;28;20042;-70
2022/04/24 10:22:11;;;;;;;6.63;2.17;;;;;;;21.35;35.57;93394.31;5082805;28;20311;-70
2022/04/24 10:24:44;;;;;;;4.68;1.65;;;;;;;21.52;36.42;93386.53;5082557;28;20024;-69
2022/04/24 10:27:11;;;;;;;4.00;1.40;;;;;;;21.67;35.76;93385.31;5082527;28;20016;-70
2022/04/24 10:29:59;;;;;;;4.72;1.70;;;;;;;21.85;34.83;93382.50;5082388;28;20354;-70
2022/04/24 10:32:30;;;;;;;4.07;1.63;;;;;;;21.91;35.23;93386.34;5082661;28;20058;-69
2022/04/24 10:34:56;;;;;;;10.25;2.50;;;;;;;22.02;34.51;93389.00;5082346;28;20080;-69
2022/04/24 10:37:39;;;;;;;16.52;1.75;;;;;;;22.12;35.23;93382.72;5082538;28;20238;-70
2022/04/24 10:40:12;;;;;;;12.77;2.67;;;;;;;22.10;34.57;93382.34;5082425;28;20374;-70
2022/04/24 10:42:38;;;;;;;8.48;1.75;;;;;;;22.28;34.17;93378.78;5082279;28;20028;-70
2022/04/24 10:45:14;;;;;;;10.57;2.10;;;;;;;22.32;33.17;93380.28;5082370;28;20082;-70
2022/04/24 10:47:48;;;;;;;5.82;1.30;;;;;;;22.27;33.50;93378.00;5082399;28;20062;-70
2022/04/24 10:50:17;;;;;;;7.07;1.95;;;;;;;22.18;33.82;93359.41;5082157;28;20028;-70
2022/04/24 10:52:47;;;;;;;8.02;1.70;;;;;;;22.19;33.54;93358.25;5082297;28;20039;-70
2022/04/24 10:55:15;;;;;;;13.52;3.20;;;;;;;22.15;33.77;93367.59;5082260;28;20034;-69
2022/04/24 10:57:43;;;;;;;5.60;1.83;;;;;;;22.13;33.65;93362.56;5082199;28;20095;-70
2022/04/24 11:00:22;;;;;;;4.20;1.63;;;;;;;22.13;33.72;93362.56;5082270;28;20207;-69
2022/04/24 11:02:49;;;;;;;9.10;1.63;;;;;;;22.04;34.99;93367.66;5083526;28;20033;-70
2022/04/24 11:05:52;;;;;;;9.88;1.70;;;;;;;22.17;33.26;93366.03;5086461;28;20024;-70
2022/04/24 11:08:28;;;;;;;5.60;1.63;;;;;;;22.16;32.58;93363.69;5086566;28;20032;-70
2022/04/24 11:11:04;;;;;;;5.43;1.73;;;;;;;22.16;33.87;93361.00;5068629;28;20122;-69
2022/04/24 11:13:36;;;;;;;10.48;2.30;;;;;;;21.82;34.06;93356.94;5086316;28;20013;-70
2022/04/24 11:16:03;;;;;;;7.93;1.90;;;;;;;22.14;34.02;93347.81;5086147;28;20087;-70
2022/04/24 11:18:28;;;;;;;8.18;2.08;;;;;;;22.39;33.36;93352.34;5086035;28;20339;-69
2022/04/24 11:20:59;;;;;;;5.78;1.42;;;;;;;22.43;33.09;93344.94;5086182;28;20031;-70
2022/04/24 11:23:26;;;;;;;8.43;1.63;;;;;;;22.63;32.87;93332.34;5085875;28;20264;-69
2022/04/24 11:25:54;;;;;;;6.50;1.80;;;;;;;22.89;34.11;93332.84;5086037;28;20249;-69
2022/04/24 11:28:19;;;;;;;8.85;2.00;;;;;;;22.92;33.22;93329.34;5086030;28;20286;-70
2022/04/24 11:30:45;;;;;;;4.15;1.40;;;;;;;23.12;33.55;93318.66;5085853;28;20073;-70
2022/04/24 11:33:10;;;;;;;20.35;2.78;;;;;;;23.25;31.38;93318.91;5085894;28;20360;-69